createdAt,value
2023-01-03T00:00:45.022Z,0.00
2023-01-03T00:01:44.974Z,0.00
2023-01-03T00:02:44.981Z,0.00
2023-01-03T00:03:44.986Z,0.00
2023-01-03T00:04:49.414Z,0.00
2023-01-03T00:05:44.937Z,0.00
2023-01-03T00:06:44.862Z,0.00
2023-01-03T00:07:44.849Z,0.00
2023-01-03T00:08:44.840Z,0.00
2023-01-03T00:09:44.847Z,0.00
2023-01-03T00:10:44.948Z,0.00
2023-01-03T00:11:51.870Z,0.00
2023-01-03T00:12:44.801Z,0.00
2023-01-03T00:13:44.781Z,0.00
2023-01-03T00:14:44.817Z,0.00
2023-01-03T00:15:44.761Z,0.00
2023-01-03T00:16:44.825Z,0.00
2023-01-03T00:17:44.762Z,0.00
2023-01-03T00:18:44.721Z,0.00
2023-01-03T00:19:44.734Z,0.00
2023-01-03T00:20:44.711Z,0.00
2023-01-03T00:21:44.690Z,0.00
2023-01-03T00:22:44.682Z,0.00
2023-01-03T00:23:44.691Z,0.00
2023-01-03T00:24:44.664Z,0.00
2023-01-03T00:25:44.701Z,0.00
2023-01-03T00:26:44.636Z,0.00
2023-01-03T00:27:44.633Z,0.00
2023-01-03T00:28:44.641Z,0.00
2023-01-03T00:29:44.621Z,0.00
2023-01-03T00:30:44.647Z,0.00
2023-01-03T00:31:44.587Z,0.00
2023-01-03T00:32:44.570Z,0.00
2023-01-03T00:33:44.560Z,0.00
2023-01-03T00:34:44.585Z,0.00
2023-01-03T00:35:44.541Z,0.00
2023-01-03T00:36:44.525Z,0.00
2023-01-03T00:37:44.520Z,0.00
2023-01-03T00:38:44.501Z,0.00
2023-01-03T00:39:44.501Z,0.00
2023-01-03T00:40:44.506Z,0.00
2023-01-03T00:41:44.475Z,0.00
2023-01-03T00:42:44.460Z,0.00
2023-01-03T00:43:44.450Z,0.00
2023-01-03T00:44:44.441Z,0.00
2023-01-03T00:45:44.491Z,0.00
2023-01-03T00:46:44.411Z,0.00
2023-01-03T00:47:44.402Z,0.00
2023-01-03T00:48:44.390Z,0.00
2023-01-03T00:49:44.383Z,0.00
2023-01-03T00:50:44.379Z,0.00
2023-01-03T00:51:44.380Z,0.00
2023-01-03T00:52:44.351Z,0.00
2023-01-03T00:53:44.341Z,0.00
2023-01-03T00:54:44.321Z,0.00
2023-01-03T00:55:44.320Z,0.00
2023-01-03T00:56:44.331Z,0.00
2023-01-03T00:57:44.290Z,0.00
2023-01-03T00:58:44.282Z,0.00
2023-01-03T00:59:44.269Z,0.00
2023-01-03T01:00:44.259Z,0.00
2023-01-03T01:01:46.551Z,0.00
2023-01-03T01:02:44.479Z,0.00
2023-01-03T01:03:44.283Z,0.00
2023-01-03T01:04:44.219Z,0.00
2023-01-03T01:05:44.209Z,0.00
2023-01-03T01:06:44.189Z,0.00
2023-01-03T01:07:44.200Z,0.00
2023-01-03T01:08:44.171Z,0.00
2023-01-03T01:09:44.159Z,0.00
2023-01-03T01:10:44.150Z,0.00
2023-01-03T01:11:44.139Z,0.00
2023-01-03T01:12:44.120Z,0.00
2023-01-03T01:13:44.129Z,0.00
2023-01-03T01:14:44.107Z,0.00
2023-01-03T01:15:44.227Z,0.00
2023-01-03T01:16:44.079Z,0.00
2023-01-03T01:17:44.068Z,0.00
2023-01-03T01:18:44.059Z,0.00
2023-01-03T01:19:44.067Z,0.00
2023-01-03T01:20:44.045Z,0.00
2023-01-03T01:21:44.031Z,0.00
2023-01-03T01:22:44.052Z,0.00
2023-01-03T01:23:44.000Z,0.00
2023-01-03T01:24:43.998Z,0.00
2023-01-03T01:25:43.979Z,0.00
2023-01-03T01:26:43.969Z,0.00
2023-01-03T01:27:43.959Z,0.00
2023-01-03T01:28:43.951Z,0.00
2023-01-03T01:29:43.964Z,0.00
2023-01-03T01:30:43.958Z,0.00
2023-01-03T01:31:43.953Z,0.00
2023-01-03T01:32:43.899Z,0.00
2023-01-03T01:33:43.896Z,0.00
2023-01-03T01:34:43.879Z,0.00
2023-01-03T01:35:43.900Z,0.00
2023-01-03T01:36:43.864Z,0.00
2023-01-03T01:37:43.849Z,0.00
2023-01-03T01:38:43.838Z,0.00
2023-01-03T01:39:43.818Z,0.00
2023-01-03T01:40:43.810Z,0.00
2023-01-03T01:41:43.818Z,0.00
2023-01-03T01:42:43.789Z,0.00
2023-01-03T01:43:43.785Z,0.00
2023-01-03T01:44:43.775Z,0.00
2023-01-03T01:45:43.759Z,0.00
2023-01-03T01:46:43.851Z,0.00
2023-01-03T01:47:43.743Z,0.00
2023-01-03T01:48:43.721Z,0.00
2023-01-03T01:49:43.719Z,0.00
2023-01-03T01:50:43.695Z,0.00
2023-01-03T01:51:43.689Z,0.00
2023-01-03T01:52:43.687Z,0.00
2023-01-03T01:53:43.676Z,0.00
2023-01-03T01:54:43.665Z,0.00
2023-01-03T01:55:43.666Z,0.00
2023-01-03T01:56:43.637Z,0.00
2023-01-03T01:57:43.638Z,0.00
2023-01-03T01:58:43.611Z,0.00
2023-01-03T01:59:43.626Z,0.00
2023-01-03T02:00:43.610Z,0.00
2023-01-03T02:01:43.726Z,0.00
2023-01-03T02:02:43.768Z,0.00
2023-01-03T02:03:43.652Z,0.00
2023-01-03T02:04:43.557Z,0.00
2023-01-03T02:05:43.539Z,0.00
2023-01-03T02:06:43.527Z,0.00
2023-01-03T02:07:43.510Z,0.00
2023-01-03T02:08:43.501Z,0.00
2023-01-03T02:09:43.507Z,0.00
2023-01-03T02:10:43.482Z,0.00
2023-01-03T02:11:43.467Z,0.00
2023-01-03T02:12:43.470Z,0.00
2023-01-03T02:13:43.452Z,0.00
2023-01-03T02:14:43.440Z,0.00
2023-01-03T02:15:43.475Z,0.00
2023-01-03T02:16:43.418Z,0.00
2023-01-03T02:17:43.398Z,0.00
2023-01-03T02:18:43.386Z,0.00
2023-01-03T02:19:43.375Z,0.00
2023-01-03T02:20:43.387Z,0.00
2023-01-03T02:21:43.357Z,0.00
2023-01-03T02:22:43.350Z,0.00
2023-01-03T02:23:43.327Z,0.00
2023-01-03T02:24:43.329Z,0.00
2023-01-03T02:25:43.306Z,0.00
2023-01-03T02:26:43.342Z,0.00
2023-01-03T02:27:43.287Z,0.00
2023-01-03T02:28:43.276Z,0.00
2023-01-03T02:29:43.256Z,0.00
2023-01-03T02:30:43.276Z,0.00
2023-01-03T02:31:43.339Z,0.00
2023-01-03T02:32:43.249Z,0.00
2023-01-03T02:33:43.219Z,0.00
2023-01-03T02:34:43.207Z,0.00
2023-01-03T02:35:43.197Z,0.00
2023-01-03T02:36:43.187Z,0.00
2023-01-03T02:37:43.202Z,0.00
2023-01-03T02:38:43.157Z,0.00
2023-01-03T02:39:43.146Z,0.00
2023-01-03T02:40:43.134Z,0.00
2023-01-03T02:41:43.115Z,0.00
2023-01-03T02:42:43.113Z,0.00
2023-01-03T02:43:43.135Z,0.00
2023-01-03T02:44:43.086Z,0.00
2023-01-03T02:45:43.077Z,0.00
2023-01-03T02:46:43.136Z,0.00
2023-01-03T02:47:43.048Z,0.00
2023-01-03T02:48:43.046Z,0.00
2023-01-03T02:49:43.046Z,0.00
2023-01-03T02:50:43.029Z,0.00
2023-01-03T02:51:43.006Z,0.00
2023-01-03T02:52:43.011Z,0.00
2023-01-03T02:53:42.989Z,0.00
2023-01-03T02:54:42.998Z,0.00
2023-01-03T02:55:42.966Z,0.00
2023-01-03T02:56:42.955Z,0.00
2023-01-03T02:57:42.938Z,0.00
2023-01-03T02:58:42.925Z,0.00
2023-01-03T02:59:42.916Z,0.00
2023-01-03T03:00:42.916Z,0.00
2023-01-03T03:01:42.944Z,0.00
2023-01-03T03:02:43.048Z,0.00
2023-01-03T03:03:42.916Z,0.00
2023-01-03T03:04:42.861Z,0.00
2023-01-03T03:05:42.866Z,0.00
2023-01-03T03:06:42.834Z,0.00
2023-01-03T03:07:42.847Z,0.00
2023-01-03T03:08:42.815Z,0.00
2023-01-03T03:09:42.796Z,0.00
2023-01-03T03:10:42.800Z,0.00
2023-01-03T03:11:42.797Z,0.00
2023-01-03T03:12:42.764Z,0.00
2023-01-03T03:13:42.756Z,0.00
2023-01-03T03:14:42.754Z,0.00
2023-01-03T03:15:42.752Z,0.00
2023-01-03T03:16:42.727Z,0.00
2023-01-03T03:17:42.739Z,0.00
2023-01-03T03:18:42.725Z,0.00
2023-01-03T03:19:42.685Z,0.00
2023-01-03T03:20:42.680Z,0.00
2023-01-03T03:21:42.673Z,0.00
2023-01-03T03:22:42.670Z,0.00
2023-01-03T03:23:42.678Z,0.00
2023-01-03T03:24:42.634Z,0.00
2023-01-03T03:25:42.663Z,0.00
2023-01-03T03:26:42.622Z,0.00
2023-01-03T03:27:42.602Z,0.00
2023-01-03T03:28:42.594Z,0.00
2023-01-03T03:29:42.627Z,0.00
2023-01-03T03:30:42.573Z,0.00
2023-01-03T03:31:42.594Z,0.00
2023-01-03T03:32:42.544Z,0.00
2023-01-03T03:33:42.543Z,0.00
2023-01-03T03:34:42.525Z,0.00
2023-01-03T03:35:42.538Z,0.00
2023-01-03T03:36:42.506Z,0.00
2023-01-03T03:37:42.501Z,0.00
2023-01-03T03:38:42.483Z,0.00
2023-01-03T03:39:42.464Z,0.00
2023-01-03T03:40:42.493Z,0.00
2023-01-03T03:41:42.449Z,0.00
2023-01-03T03:42:42.447Z,0.00
2023-01-03T03:43:42.423Z,0.00
2023-01-03T03:44:42.423Z,0.00
2023-01-03T03:45:42.414Z,0.00
2023-01-03T03:46:44.939Z,0.00
2023-01-03T03:47:43.383Z,0.00
2023-01-03T03:48:42.381Z,0.00
2023-01-03T03:49:42.367Z,0.00
2023-01-03T03:50:42.353Z,0.00
2023-01-03T03:51:42.343Z,0.00
2023-01-03T03:52:42.354Z,0.00
2023-01-03T03:53:42.313Z,0.00
2023-01-03T03:54:42.311Z,0.00
2023-01-03T03:55:42.313Z,0.00
2023-01-03T03:56:42.293Z,0.00
2023-01-03T03:57:42.293Z,0.00
2023-01-03T03:58:42.277Z,0.00
2023-01-03T03:59:42.256Z,0.00
2023-01-03T04:00:42.243Z,0.00
2023-01-03T04:01:42.326Z,0.00
2023-01-03T04:02:42.316Z,0.00
2023-01-03T04:03:42.292Z,0.00
2023-01-03T04:04:42.202Z,0.00
2023-01-03T04:05:42.196Z,0.00
2023-01-03T04:06:42.190Z,0.00
2023-01-03T04:07:42.164Z,0.00
2023-01-03T04:08:42.152Z,0.00
2023-01-03T04:09:42.165Z,0.00
2023-01-03T04:10:42.132Z,0.00
2023-01-03T04:11:42.124Z,0.00
2023-01-03T04:12:42.112Z,0.00
2023-01-03T04:13:42.102Z,0.00
2023-01-03T04:14:42.092Z,0.00
2023-01-03T04:15:42.116Z,0.00
2023-01-03T04:16:42.133Z,0.00
2023-01-03T04:17:42.062Z,0.00
2023-01-03T04:18:42.055Z,0.00
2023-01-03T04:19:42.037Z,0.00
2023-01-03T04:20:42.031Z,0.00
2023-01-03T04:21:42.032Z,0.00
2023-01-03T04:22:42.003Z,0.00
2023-01-03T04:23:41.991Z,0.00
2023-01-03T04:24:41.981Z,0.00
2023-01-03T04:25:41.980Z,0.00
2023-01-03T04:26:41.980Z,0.00
2023-01-03T04:27:41.964Z,0.00
2023-01-03T04:28:41.939Z,0.00
2023-01-03T04:29:41.959Z,0.00
2023-01-03T04:30:41.924Z,0.00
2023-01-03T04:31:41.951Z,0.00
2023-01-03T04:32:41.918Z,0.00
2023-01-03T04:33:41.879Z,0.00
2023-01-03T04:34:41.871Z,0.00
2023-01-03T04:35:41.875Z,0.00
2023-01-03T04:36:41.865Z,0.00
2023-01-03T04:37:41.862Z,0.00
2023-01-03T04:38:41.830Z,0.00
2023-01-03T04:39:41.819Z,0.00
2023-01-03T04:40:41.809Z,0.00
2023-01-03T04:41:41.789Z,0.00
2023-01-03T04:42:41.784Z,0.00
2023-01-03T04:43:41.789Z,0.00
2023-01-03T04:44:41.782Z,0.00
2023-01-03T04:45:41.841Z,0.00
2023-01-03T04:46:44.134Z,0.00
2023-01-03T04:47:42.719Z,0.00
2023-01-03T04:48:41.718Z,0.00
2023-01-03T04:49:41.732Z,0.00
2023-01-03T04:50:41.701Z,0.00
2023-01-03T04:51:41.679Z,0.00
2023-01-03T04:52:41.670Z,0.00
2023-01-03T04:53:41.658Z,0.00
2023-01-03T04:54:41.649Z,0.00
2023-01-03T04:55:41.669Z,0.00
2023-01-03T04:56:41.635Z,0.00
2023-01-03T04:57:41.620Z,0.00
2023-01-03T04:58:41.608Z,0.00
2023-01-03T04:59:41.591Z,0.00
2023-01-03T05:00:41.607Z,0.00
2023-01-03T05:01:41.801Z,0.00
2023-01-03T05:02:41.755Z,0.00
2023-01-03T05:03:41.605Z,0.00
2023-01-03T05:04:41.619Z,0.00
2023-01-03T05:05:41.539Z,0.00
2023-01-03T05:06:41.535Z,0.00
2023-01-03T05:07:41.499Z,0.00
2023-01-03T05:08:41.500Z,0.00
2023-01-03T05:09:41.500Z,0.00
2023-01-03T05:10:41.471Z,0.00
2023-01-03T05:11:41.457Z,0.00
2023-01-03T05:12:41.472Z,0.00
2023-01-03T05:13:41.445Z,0.00
2023-01-03T05:14:41.504Z,0.00
2023-01-03T05:15:41.429Z,0.00
2023-01-03T05:16:41.460Z,0.00
2023-01-03T05:17:41.387Z,0.00
2023-01-03T05:18:41.399Z,0.00
2023-01-03T05:19:45.414Z,0.00
2023-01-03T05:20:41.357Z,0.00
2023-01-03T05:21:41.349Z,0.00
2023-01-03T05:22:41.335Z,0.00
2023-01-03T05:23:41.319Z,0.00
2023-01-03T05:24:41.328Z,0.00
2023-01-03T05:25:41.306Z,0.00
2023-01-03T05:26:41.287Z,0.00
2023-01-03T05:27:41.291Z,0.00
2023-01-03T05:28:41.278Z,0.00
2023-01-03T05:29:41.279Z,0.00
2023-01-03T05:30:41.247Z,0.00
2023-01-03T05:31:41.343Z,0.00
2023-01-03T05:32:41.225Z,0.00
2023-01-03T05:33:41.207Z,0.00
2023-01-03T05:34:41.198Z,0.00
2023-01-03T05:35:41.204Z,0.00
2023-01-03T05:36:41.177Z,0.00
2023-01-03T05:37:41.165Z,0.00
2023-01-03T05:38:41.155Z,0.00
2023-01-03T05:39:41.145Z,0.00
2023-01-03T05:40:41.631Z,0.00
2023-01-03T05:41:41.115Z,0.00
2023-01-03T05:42:41.109Z,0.00
2023-01-03T05:43:41.099Z,0.00
2023-01-03T05:44:41.095Z,0.00
2023-01-03T05:45:41.161Z,0.00
2023-01-03T05:46:41.085Z,0.00
2023-01-03T05:47:41.057Z,0.00
2023-01-03T05:48:41.043Z,0.00
2023-01-03T05:49:41.031Z,0.00
2023-01-03T05:50:41.014Z,0.00
2023-01-03T05:51:41.018Z,0.00
2023-01-03T05:52:41.015Z,0.00
2023-01-03T05:53:40.983Z,0.00
2023-01-03T05:54:40.975Z,0.00
2023-01-03T05:55:40.978Z,0.00
2023-01-03T05:56:40.955Z,0.00
2023-01-03T05:57:40.966Z,0.00
2023-01-03T05:58:40.933Z,0.00
2023-01-03T05:59:40.921Z,0.00
2023-01-03T06:00:40.940Z,0.00
2023-01-03T06:01:40.932Z,0.00
2023-01-03T06:02:40.964Z,0.00
2023-01-03T06:03:40.886Z,0.00
2023-01-03T06:04:40.977Z,0.00
2023-01-03T06:05:46.080Z,0.00
2023-01-03T06:06:41.844Z,0.00
2023-01-03T06:07:40.823Z,0.00
2023-01-03T06:08:40.842Z,0.00
2023-01-03T06:09:40.814Z,0.00
2023-01-03T06:10:40.795Z,0.00
2023-01-03T06:11:40.784Z,0.00
2023-01-03T06:12:40.773Z,0.00
2023-01-03T06:13:40.767Z,0.00
2023-01-03T06:14:40.774Z,0.00
2023-01-03T06:15:40.743Z,0.00
2023-01-03T06:16:40.785Z,0.00
2023-01-03T06:17:40.719Z,0.00
2023-01-03T06:18:40.712Z,0.00
2023-01-03T06:19:40.691Z,0.00
2023-01-03T06:20:40.701Z,0.00
2023-01-03T06:21:40.671Z,0.00
2023-01-03T06:22:40.661Z,0.00
2023-01-03T06:23:40.652Z,0.00
2023-01-03T06:24:40.645Z,0.00
2023-01-03T06:25:40.670Z,0.00
2023-01-03T06:26:40.642Z,0.00
2023-01-03T06:27:40.601Z,0.00
2023-01-03T06:28:40.592Z,0.00
2023-01-03T06:29:40.582Z,0.00
2023-01-03T06:30:40.591Z,0.00
2023-01-03T06:31:40.567Z,0.00
2023-01-03T06:32:40.571Z,0.00
2023-01-03T06:33:40.561Z,0.00
2023-01-03T06:34:40.522Z,0.00
2023-01-03T06:35:40.522Z,0.00
2023-01-03T06:36:40.503Z,0.00
2023-01-03T06:37:40.490Z,0.00
2023-01-03T06:38:40.502Z,0.00
2023-01-03T06:39:40.474Z,0.00
2023-01-03T06:40:45.574Z,0.00
2023-01-03T06:41:41.455Z,0.00
2023-01-03T06:42:40.445Z,0.00
2023-01-03T06:43:40.449Z,0.00
2023-01-03T06:44:40.447Z,0.00
2023-01-03T06:45:40.422Z,0.00
2023-01-03T06:46:40.447Z,0.00
2023-01-03T06:47:40.380Z,0.00
2023-01-03T06:48:40.373Z,0.00
2023-01-03T06:49:40.386Z,4.00
2023-01-03T06:50:40.359Z,4.00
2023-01-03T06:51:40.339Z,4.00
2023-01-03T06:52:40.319Z,4.00
2023-01-03T06:53:40.327Z,4.00
2023-01-03T06:54:40.303Z,4.00
2023-01-03T06:55:40.351Z,4.00
2023-01-03T06:56:40.278Z,8.00
2023-01-03T06:57:40.269Z,8.00
2023-01-03T06:58:40.258Z,12.00
2023-01-03T06:59:40.248Z,12.00
2023-01-03T07:00:40.240Z,12.00
2023-01-03T07:01:40.339Z,16.00
2023-01-03T07:02:40.279Z,16.00
2023-01-03T07:03:40.198Z,20.00
2023-01-03T07:04:40.223Z,24.00
2023-01-03T07:05:40.188Z,32.00
2023-01-03T07:06:40.168Z,32.00
2023-01-03T07:07:40.178Z,40.00
2023-01-03T07:08:45.917Z,44.00
2023-01-03T07:09:41.138Z,52.00
2023-01-03T07:10:40.128Z,60.00
2023-01-03T07:11:40.122Z,68.00
2023-01-03T07:12:40.129Z,76.00
2023-01-03T07:13:40.092Z,80.00
2023-01-03T07:14:40.075Z,92.00
2023-01-03T07:15:40.149Z,104.00
2023-01-03T07:16:40.068Z,116.00
2023-01-03T07:17:40.048Z,132.00
2023-01-03T07:18:40.057Z,144.00
2023-01-03T07:19:40.024Z,156.00
2023-01-03T07:20:40.070Z,176.00
2023-01-03T07:21:39.998Z,188.00
2023-01-03T07:22:39.987Z,204.00
2023-01-03T07:23:40.005Z,224.00
2023-01-03T07:24:39.969Z,240.00
2023-01-03T07:25:39.963Z,260.00
2023-01-03T07:26:39.946Z,276.00
2023-01-03T07:27:39.936Z,292.00
2023-01-03T07:28:39.936Z,312.00
2023-01-03T07:29:39.928Z,336.00
2023-01-03T07:30:39.904Z,356.00
2023-01-03T07:31:39.938Z,376.00
2023-01-03T07:32:39.875Z,396.00
2023-01-03T07:33:39.875Z,416.00
2023-01-03T07:34:39.877Z,444.00
2023-01-03T07:35:39.853Z,472.00
2023-01-03T07:36:39.835Z,496.00
2023-01-03T07:37:39.826Z,520.00
2023-01-03T07:38:39.826Z,552.00
2023-01-03T07:39:39.805Z,576.00
2023-01-03T07:40:39.802Z,604.00
2023-01-03T07:41:39.784Z,636.00
2023-01-03T07:42:39.765Z,664.00
2023-01-03T07:43:39.769Z,692.00
2023-01-03T07:44:39.743Z,716.00
2023-01-03T07:45:39.765Z,744.00
2023-01-03T07:46:39.770Z,776.00
2023-01-03T07:47:39.714Z,808.00
2023-01-03T07:48:39.702Z,836.00
2023-01-03T07:49:39.693Z,868.00
2023-01-03T07:50:39.684Z,896.00
2023-01-03T07:51:39.725Z,924.00
2023-01-03T07:52:39.654Z,952.00
2023-01-03T07:53:39.654Z,984.00
2023-01-03T07:54:39.641Z,1020.00
2023-01-03T07:55:39.624Z,1060.00
2023-01-03T07:56:39.613Z,1100.00
2023-01-03T07:57:39.627Z,1176.00
2023-01-03T07:58:39.592Z,1244.00
2023-01-03T07:59:39.588Z,1256.00
2023-01-03T08:00:39.566Z,1292.00
2023-01-03T08:01:39.689Z,1328.00
2023-01-03T08:02:39.695Z,1392.00
2023-01-03T08:03:39.546Z,1424.00
2023-01-03T08:04:39.570Z,1560.00
2023-01-03T08:05:39.521Z,1716.00
2023-01-03T08:06:39.522Z,1836.00
2023-01-03T08:07:39.502Z,1944.00
2023-01-03T08:08:39.508Z,2260.00
2023-01-03T08:09:39.474Z,2088.00
2023-01-03T08:10:39.471Z,1916.00
2023-01-03T08:11:39.453Z,2056.00
2023-01-03T08:12:39.441Z,2316.00
2023-01-03T08:13:39.451Z,2624.00
2023-01-03T08:14:39.422Z,2588.00
2023-01-03T08:15:39.456Z,2360.00
2023-01-03T08:16:39.420Z,2564.00
2023-01-03T08:17:39.387Z,3496.00
2023-01-03T08:18:39.385Z,4284.00
2023-01-03T08:19:45.275Z,4176.00
2023-01-03T08:20:40.351Z,4672.00
2023-01-03T08:21:39.331Z,4332.00
2023-01-03T08:22:39.325Z,3688.00
2023-01-03T08:23:39.326Z,3512.00
2023-01-03T08:24:39.300Z,4772.00
2023-01-03T08:25:39.361Z,3396.00
2023-01-03T08:26:39.269Z,3368.00
2023-01-03T08:27:40.264Z,3220.00
2023-01-03T08:28:39.257Z,3196.00
2023-01-03T08:29:39.251Z,3112.00
2023-01-03T08:30:39.241Z,2896.00
2023-01-03T08:31:39.308Z,2624.00
2023-01-03T08:32:39.231Z,2448.00
2023-01-03T08:33:39.197Z,2364.00
2023-01-03T08:34:39.190Z,2372.00
2023-01-03T08:35:39.185Z,2428.00
2023-01-03T08:36:39.189Z,2460.00
2023-01-03T08:37:39.160Z,2496.00
2023-01-03T08:38:39.148Z,2528.00
2023-01-03T08:39:39.140Z,2536.00
2023-01-03T08:40:42.109Z,2524.00
2023-01-03T08:41:39.119Z,2520.00
2023-01-03T08:42:39.119Z,2556.00
2023-01-03T08:43:39.100Z,2596.00
2023-01-03T08:44:39.092Z,2660.00
2023-01-03T08:45:39.078Z,3252.00
2023-01-03T08:46:39.088Z,6088.00
2023-01-03T08:47:39.079Z,6648.00
2023-01-03T08:48:39.066Z,7400.00
2023-01-03T08:49:39.029Z,7604.00
2023-01-03T08:50:39.020Z,7472.00
2023-01-03T08:51:39.013Z,7104.00
2023-01-03T08:52:38.999Z,6732.00
2023-01-03T08:53:39.018Z,7268.00
2023-01-03T08:54:38.980Z,7324.00
2023-01-03T08:55:38.972Z,7620.00
2023-01-03T08:56:38.952Z,7544.00
2023-01-03T08:57:38.942Z,7532.00
2023-01-03T08:58:38.929Z,7932.00
2023-01-03T08:59:38.950Z,7860.00
2023-01-03T09:00:38.905Z,7708.00
2023-01-03T09:01:39.027Z,7984.00
2023-01-03T09:02:39.145Z,8288.00
2023-01-03T09:03:39.048Z,8532.00
2023-01-03T09:04:38.882Z,6752.00
2023-01-03T09:05:38.864Z,8484.00
2023-01-03T09:06:38.848Z,7524.00
2023-01-03T09:07:38.837Z,4988.00
2023-01-03T09:08:38.819Z,5364.00
2023-01-03T09:09:38.819Z,6080.00
2023-01-03T09:10:43.585Z,5028.00
2023-01-03T09:11:39.790Z,4688.00
2023-01-03T09:12:38.780Z,5404.00
2023-01-03T09:13:38.768Z,5804.00
2023-01-03T09:14:38.761Z,4588.00
2023-01-03T09:15:38.756Z,4748.00
2023-01-03T09:16:41.672Z,5008.00
2023-01-03T09:17:39.723Z,4804.00
2023-01-03T09:18:38.706Z,4524.00
2023-01-03T09:19:38.698Z,4116.00
2023-01-03T09:20:38.688Z,4636.00
2023-01-03T09:21:38.718Z,4680.00
2023-01-03T09:22:38.666Z,4396.00
2023-01-03T09:23:38.644Z,5564.00
2023-01-03T09:24:38.645Z,4656.00
2023-01-03T09:25:38.638Z,4068.00
2023-01-03T09:26:38.627Z,4512.00
2023-01-03T09:27:38.627Z,4268.00
2023-01-03T09:28:38.599Z,3908.00
2023-01-03T09:29:38.592Z,4024.00
2023-01-03T09:30:38.567Z,3812.00
2023-01-03T09:31:40.190Z,4416.00
2023-01-03T09:32:38.566Z,5524.00
2023-01-03T09:33:38.584Z,4548.00
2023-01-03T09:34:38.523Z,4676.00
2023-01-03T09:35:38.523Z,5504.00
2023-01-03T09:36:38.539Z,5380.00
2023-01-03T09:37:40.665Z,3768.00
2023-01-03T09:38:38.497Z,5244.00
2023-01-03T09:39:38.468Z,4608.00
2023-01-03T09:40:38.459Z,5424.00
2023-01-03T09:41:38.450Z,4956.00
2023-01-03T09:42:38.436Z,4780.00
2023-01-03T09:43:38.442Z,6136.00
2023-01-03T09:44:38.420Z,6548.00
2023-01-03T09:45:38.410Z,5612.00
2023-01-03T09:46:38.494Z,5052.00
2023-01-03T09:47:38.404Z,4676.00
2023-01-03T09:48:38.368Z,5620.00
2023-01-03T09:49:51.858Z,5792.00
2023-01-03T09:51:05.964Z,6444.00
2023-01-03T09:51:39.334Z,5976.00
2023-01-03T09:52:38.321Z,6316.00
2023-01-03T09:53:38.316Z,4972.00
2023-01-03T09:54:38.295Z,5892.00
2023-01-03T09:55:38.353Z,5848.00
2023-01-03T09:56:38.309Z,5548.00
2023-01-03T09:57:38.264Z,5396.00
2023-01-03T09:58:38.258Z,4740.00
2023-01-03T09:59:38.252Z,4404.00
2023-01-03T10:00:38.269Z,5328.00
2023-01-03T10:01:38.318Z,5436.00
2023-01-03T10:02:38.308Z,5204.00
2023-01-03T10:03:38.271Z,5104.00
2023-01-03T10:04:38.187Z,5592.00
2023-01-03T10:05:38.174Z,4888.00
2023-01-03T10:06:38.185Z,4784.00
2023-01-03T10:07:38.153Z,4964.00
2023-01-03T10:08:38.160Z,5020.00
2023-01-03T10:09:38.142Z,5600.00
2023-01-03T10:10:38.114Z,5292.00
2023-01-03T10:11:38.106Z,6024.00
2023-01-03T10:12:38.128Z,5776.00
2023-01-03T10:13:38.090Z,5340.00
2023-01-03T10:14:38.090Z,5276.00
2023-01-03T10:15:38.067Z,6344.00
2023-01-03T10:16:38.129Z,5124.00
2023-01-03T10:17:38.052Z,4684.00
2023-01-03T10:18:38.043Z,4812.00
2023-01-03T10:19:38.023Z,4896.00
2023-01-03T10:20:38.014Z,4820.00
2023-01-03T10:21:37.993Z,5068.00
2023-01-03T10:22:37.989Z,5544.00
2023-01-03T10:23:37.994Z,5856.00
2023-01-03T10:24:37.965Z,5988.00
2023-01-03T10:25:37.955Z,4544.00
2023-01-03T10:26:37.944Z,5240.00
2023-01-03T10:27:37.934Z,4592.00
2023-01-03T10:28:37.922Z,5296.00
2023-01-03T10:29:37.933Z,4844.00
2023-01-03T10:30:37.903Z,5212.00
2023-01-03T10:31:37.940Z,6728.00
2023-01-03T10:32:37.877Z,5216.00
2023-01-03T10:33:37.865Z,5316.00
2023-01-03T10:34:37.861Z,6124.00
2023-01-03T10:35:37.853Z,5936.00
2023-01-03T10:36:37.831Z,5672.00
2023-01-03T10:37:37.822Z,6016.00
2023-01-03T10:38:44.783Z,5712.00
2023-01-03T10:39:40.653Z,5520.00
2023-01-03T10:40:37.804Z,6016.00
2023-01-03T10:41:37.774Z,6468.00
2023-01-03T10:42:37.768Z,6260.00
2023-01-03T10:43:37.761Z,5800.00
2023-01-03T10:44:37.754Z,6496.00
2023-01-03T10:45:41.704Z,4892.00
2023-01-03T10:46:38.779Z,6120.00
2023-01-03T10:47:37.704Z,6472.00
2023-01-03T10:49:00.304Z,6848.00
2023-01-03T10:49:38.694Z,6312.00
2023-01-03T10:50:37.685Z,5880.00
2023-01-03T10:51:42.572Z,5628.00
2023-01-03T10:52:38.673Z,5888.00
2023-01-03T10:53:37.641Z,6296.00
2023-01-03T10:54:37.632Z,6132.00
2023-01-03T10:55:37.651Z,6404.00
2023-01-03T10:56:37.606Z,4880.00
2023-01-03T10:57:37.600Z,5320.00
2023-01-03T10:58:37.613Z,6024.00
2023-01-03T10:59:37.593Z,6004.00
2023-01-03T11:00:37.573Z,6024.00
2023-01-03T11:01:37.682Z,6136.00
2023-01-03T11:02:37.732Z,6968.00
2023-01-03T11:03:37.593Z,7528.00
2023-01-03T11:04:37.557Z,7096.00
2023-01-03T11:05:37.503Z,6016.00
2023-01-03T11:06:37.508Z,7452.00
2023-01-03T11:07:37.482Z,7288.00
2023-01-03T11:08:37.512Z,5944.00
2023-01-03T11:09:37.464Z,5648.00
2023-01-03T11:10:37.476Z,4688.00
2023-01-03T11:11:37.442Z,4432.00
2023-01-03T11:12:37.421Z,4708.00
2023-01-03T11:13:37.431Z,4904.00
2023-01-03T11:14:37.422Z,4536.00
2023-01-03T11:15:39.075Z,4548.00
2023-01-03T11:16:37.467Z,4524.00
2023-01-03T11:17:37.371Z,4556.00
2023-01-03T11:18:37.376Z,4532.00
2023-01-03T11:19:37.349Z,4512.00
2023-01-03T11:20:37.340Z,4580.00
2023-01-03T11:21:37.323Z,4676.00
2023-01-03T11:22:38.102Z,4472.00
2023-01-03T11:23:37.305Z,4676.00
2023-01-03T11:24:37.291Z,5312.00
2023-01-03T11:25:37.307Z,5388.00
2023-01-03T11:26:37.310Z,5404.00
2023-01-03T11:27:37.301Z,4968.00
2023-01-03T11:28:37.251Z,4904.00
2023-01-03T11:29:37.231Z,5312.00
2023-01-03T11:30:37.221Z,4576.00
2023-01-03T11:31:37.232Z,3852.00
2023-01-03T11:32:37.207Z,4644.00
2023-01-03T11:33:37.214Z,4508.00
2023-01-03T11:35:11.636Z,4508.00
2023-01-03T11:35:38.170Z,4616.00
2023-01-03T11:36:37.161Z,4628.00
2023-01-03T11:37:37.141Z,4652.00
2023-01-03T11:38:37.142Z,4548.00
2023-01-03T11:39:37.145Z,4492.00
2023-01-03T11:40:37.113Z,4796.00
2023-01-03T11:41:37.094Z,4808.00
2023-01-03T11:42:37.126Z,4584.00
2023-01-03T11:43:37.081Z,4708.00
2023-01-03T11:44:37.070Z,4592.00
2023-01-03T11:45:38.700Z,4568.00
2023-01-03T11:46:37.078Z,4648.00
2023-01-03T11:47:37.027Z,4700.00
2023-01-03T11:48:37.036Z,4544.00
2023-01-03T11:49:37.032Z,4512.00
2023-01-03T11:50:37.001Z,4512.00
2023-01-03T11:51:37.003Z,4452.00
2023-01-03T11:52:36.986Z,4436.00
2023-01-03T11:53:36.963Z,4476.00
2023-01-03T11:54:36.962Z,4476.00
2023-01-03T11:55:36.941Z,4412.00
2023-01-03T11:56:36.951Z,4400.00
2023-01-03T11:57:36.941Z,4456.00
2023-01-03T11:58:36.911Z,4584.00
2023-01-03T11:59:36.894Z,4504.00
2023-01-03T12:00:36.893Z,3940.00
2023-01-03T12:01:39.555Z,4304.00
2023-01-03T12:02:36.905Z,4128.00
2023-01-03T12:03:36.986Z,4028.00
2023-01-03T12:04:36.934Z,4024.00
2023-01-03T12:05:36.839Z,4376.00
2023-01-03T12:06:36.826Z,4176.00
2023-01-03T12:07:47.437Z,3516.00
2023-01-03T12:08:37.824Z,3572.00
2023-01-03T12:09:36.783Z,3600.00
2023-01-03T12:10:36.771Z,3992.00
2023-01-03T12:11:36.762Z,4296.00
2023-01-03T12:12:36.762Z,4232.00
2023-01-03T12:13:36.741Z,3224.00
2023-01-03T12:14:36.752Z,3192.00
2023-01-03T12:15:36.751Z,3140.00
2023-01-03T12:16:36.740Z,3200.00
2023-01-03T12:17:36.695Z,3292.00
2023-01-03T12:18:36.700Z,3276.00
2023-01-03T12:19:36.673Z,3984.00
2023-01-03T12:20:36.683Z,4260.00
2023-01-03T12:21:36.665Z,4160.00
2023-01-03T12:22:36.663Z,4180.00
2023-01-03T12:23:36.623Z,4188.00
2023-01-03T12:24:36.614Z,4176.00
2023-01-03T12:25:36.629Z,3960.00
2023-01-03T12:26:36.595Z,3712.00
2023-01-03T12:27:36.595Z,3524.00
2023-01-03T12:28:36.580Z,4144.00
2023-01-03T12:29:36.566Z,4152.00
2023-01-03T12:30:36.552Z,3996.00
2023-01-03T12:31:36.594Z,3396.00
2023-01-03T12:32:36.524Z,3608.00
2023-01-03T12:33:36.513Z,4096.00
2023-01-03T12:34:36.510Z,4064.00
2023-01-03T12:35:36.492Z,3212.00
2023-01-03T12:36:36.503Z,2952.00
2023-01-03T12:37:36.467Z,3436.00
2023-01-03T12:38:36.462Z,3180.00
2023-01-03T12:39:36.448Z,4004.00
2023-01-03T12:40:36.447Z,4200.00
2023-01-03T12:41:36.431Z,4268.00
2023-01-03T12:42:36.451Z,4232.00
2023-01-03T12:43:36.407Z,4260.00
2023-01-03T12:44:36.395Z,4332.00
2023-01-03T12:45:38.707Z,4348.00
2023-01-03T12:46:36.385Z,4324.00